»·PEaware :: N805RJ L52-L65

N805RJ :: L52-L65

FLIGHT INFORMATION

Flight Status: Arrived
Operator: Privately registered:
United States
More flights under this callsign
Pilot: Rickie J. (22768)
Aircraft: CESSNA 172 SKYHAWK
(C172)
More flights by this aircraft type
Origin: L52 Oceano Co
United States
Destination: L65 Perris Valley
United States
More flights between these airports :: More routes between these airports
Route: FABEG V27 HENER V186 NIKKL PERIS
File this flight plan on PilotEdge
Remarks:
Altitude:
(Current/Filed)
11,500ft
Speed:
(Current/Filed)
120kts
Departed: 29-Dec-20 02:59 PM
Arrived: 29-Dec-20 04:45 PM
Distance/Time
Traveled:
187nm/1:46
Distance/Time
To Go:
Arrived

Flight Plot

Page will automatically refresh every two minutes.

Flight plan parsing failed; only flown route is shown


Map Options




Map Legend


Flown Route
Filed Route
Departure Airport
Arrival Airport
Navaid (VOR, NDB)
Fix

Horizontal Profiles

Position Reports

Time Latitude Longitude Heading Altitude Ground
Speed
29-Dec-20 13:57 35.103935 -120.625294 32 18ft 0kts
29-Dec-20 13:57 35.103935 -120.625294 32 18ft 0kts
29-Dec-20 13:58 35.103935 -120.625293 32 18ft 0kts
29-Dec-20 13:59 35.103935 -120.625293 32 18ft 0kts
29-Dec-20 14:00 35.103935 -120.625293 32 18ft 0kts
29-Dec-20 14:01 35.103935 -120.625293 32 18ft 0kts
29-Dec-20 14:02 35.103935 -120.625293 32 18ft 0kts
29-Dec-20 14:03 35.103935 -120.625293 32 18ft 0kts
29-Dec-20 14:04 35.103935 -120.625293 32 18ft 0kts
29-Dec-20 14:05 35.103935 -120.625293 32 18ft 0kts
29-Dec-20 14:06 35.103935 -120.625293 32 18ft 0kts
29-Dec-20 14:07 35.103935 -120.625293 32 18ft 0kts
29-Dec-20 14:08 35.103935 -120.625293 32 18ft 0kts
29-Dec-20 14:09 35.103935 -120.625293 32 18ft 0kts
29-Dec-20 14:10 35.103935 -120.625293 32 18ft 0kts
29-Dec-20 14:11 35.103935 -120.625293 32 18ft 0kts
29-Dec-20 14:12 35.103935 -120.625293 32 18ft 0kts
29-Dec-20 14:13 35.103935 -120.625294 32 18ft 0kts
29-Dec-20 14:14 35.103935 -120.625293 32 18ft 0kts
29-Dec-20 14:15 35.103935 -120.625293 32 18ft 0kts
29-Dec-20 14:16 35.103935 -120.625293 32 18ft 0kts
29-Dec-20 14:17 35.103935 -120.625294 32 18ft 0kts
29-Dec-20 14:18 35.103935 -120.625293 32 18ft 0kts
29-Dec-20 14:19 35.103935 -120.625293 32 18ft 0kts
29-Dec-20 14:20 35.103935 -120.625293 32 18ft 0kts
29-Dec-20 14:21 35.103935 -120.625293 32 18ft 0kts
29-Dec-20 14:22 35.103935 -120.625294 32 18ft 0kts
29-Dec-20 14:23 35.103935 -120.625294 32 18ft 0kts
29-Dec-20 14:24 35.103935 -120.625293 32 18ft 0kts
29-Dec-20 14:25 35.103935 -120.625293 32 18ft 0kts
29-Dec-20 14:26 35.103935 -120.625293 32 18ft 0kts
29-Dec-20 14:27 35.103935 -120.625293 32 18ft 0kts
29-Dec-20 14:28 35.103935 -120.625293 32 18ft 0kts
29-Dec-20 14:29 35.103935 -120.625293 32 18ft 0kts
29-Dec-20 14:30 35.103935 -120.625293 32 18ft 0kts
29-Dec-20 14:31 35.103935 -120.625293 32 18ft 0kts
29-Dec-20 14:32 35.103935 -120.625293 32 18ft 0kts
29-Dec-20 14:33 35.103935 -120.625293 32 18ft 0kts
29-Dec-20 14:34 35.103935 -120.625293 32 18ft 0kts
29-Dec-20 14:35 35.103935 -120.625293 32 18ft 0kts
29-Dec-20 14:36 35.103935 -120.625293 32 18ft 0kts
29-Dec-20 14:37 35.103935 -120.625293 32 18ft 0kts
29-Dec-20 14:38 35.103935 -120.625293 32 18ft 0kts
29-Dec-20 14:39 35.103935 -120.625293 32 18ft 0kts
29-Dec-20 14:40 35.103935 -120.625293 32 18ft 0kts
29-Dec-20 14:41 35.103935 -120.625293 32 18ft 0kts
29-Dec-20 14:42 35.103935 -120.625293 32 18ft 0kts
29-Dec-20 14:43 35.103935 -120.625293 32 18ft 0kts
29-Dec-20 14:44 35.103935 -120.625293 32 18ft 0kts
29-Dec-20 14:45 35.103935 -120.625293 32 18ft 0kts
29-Dec-20 14:46 35.103935 -120.625293 32 18ft 0kts
29-Dec-20 14:47 35.103935 -120.625293 32 18ft 0kts
29-Dec-20 14:48 35.103935 -120.625293 32 18ft 0kts
29-Dec-20 14:49 35.103935 -120.625293 32 18ft 0kts
29-Dec-20 14:50 35.103935 -120.625293 32 18ft 0kts
29-Dec-20 14:51 35.103868 -120.625241 159 18ft 0kts
29-Dec-20 14:52 35.103567 -120.625261 212 18ft 0kts
29-Dec-20 14:53 35.103567 -120.625261 212 18ft 0kts
29-Dec-20 14:54 35.103567 -120.625262 212 18ft 0kts
29-Dec-20 14:55 35.103567 -120.625262 212 18ft 0kts
29-Dec-20 14:56 35.103567 -120.625262 212 18ft 0kts
29-Dec-20 14:57 35.103146 -120.625418 122 18ft 0kts
29-Dec-20 14:58 35.094059 -120.608591 126 325ft 96kts
29-Dec-20 14:59 35.077232 -120.582040 147 1167ft 103kts
29-Dec-20 15:00 35.050669 -120.581761 126 1965ft 103kts
29-Dec-20 15:01 35.031894 -120.555198 137 2767ft 103kts
29-Dec-20 15:02 35.009605 -120.532839 140 3568ft 102kts
29-Dec-20 15:03 34.987323 -120.511956 144 4346ft 101kts
29-Dec-20 15:04 34.964568 -120.490835 144 5058ft 101kts
29-Dec-20 15:05 34.942264 -120.470123 144 5762ft 98kts
29-Dec-20 15:06 34.920421 -120.449862 144 6384ft 99kts
29-Dec-20 15:07 34.898388 -120.429428 143 6986ft 97kts
29-Dec-20 15:08 34.876237 -120.408864 144 7518ft 101kts
29-Dec-20 15:09 34.853855 -120.388234 143 8046ft 100kts
29-Dec-20 15:10 34.831861 -120.367813 142 8535ft 98kts
29-Dec-20 15:11 34.809642 -120.347248 141 8944ft 98kts
29-Dec-20 15:12 34.787674 -120.326945 142 9354ft 97kts
29-Dec-20 15:13 34.765903 -120.306866 142 9733ft 99kts
29-Dec-20 15:14 34.743352 -120.286073 141 10057ft 101kts
29-Dec-20 15:15 34.720427 -120.265099 142 10342ft 103kts
29-Dec-20 15:16 34.697898 -120.244024 142 10655ft 100kts
29-Dec-20 15:18 34.675569 -120.223358 143 10962ft 99kts
29-Dec-20 15:19 34.652922 -120.202489 144 11161ft 105kts
29-Dec-20 15:20 34.628780 -120.180288 144 11267ft 109kts
29-Dec-20 15:21 34.604115 -120.157617 144 11372ft 110kts
29-Dec-20 15:22 34.579124 -120.134934 146 11503ft 112kts
29-Dec-20 15:23 34.553634 -120.111363 144 11501ft 115kts
29-Dec-20 15:24 34.527353 -120.087289 145 11497ft 117kts
29-Dec-20 15:25 34.501247 -120.063455 145 11499ft 115kts
29-Dec-20 15:26 34.477495 -120.037398 118 11524ft 117kts
29-Dec-20 15:27 34.465342 -119.999091 115 11497ft 120kts
29-Dec-20 15:28 34.453177 -119.960778 115 11467ft 119kts
29-Dec-20 15:29 34.441009 -119.922622 115 11475ft 120kts
29-Dec-20 15:29 34.431031 -119.891543 115 11508ft 118kts
29-Dec-20 15:31 34.416842 -119.847404 115 11506ft 119kts
29-Dec-20 15:32 34.413083 -119.835674 115 11506ft 119kts
29-Dec-20 15:33 34.400972 -119.797947 115 11508ft 119kts
29-Dec-20 15:33 34.390886 -119.766199 113 11514ft 121kts
29-Dec-20 15:34 34.378502 -119.727841 118 11506ft 120kts
29-Dec-20 15:36 34.363903 -119.682870 117 11505ft 121kts
29-Dec-20 15:36 34.353609 -119.650774 115 11510ft 121kts
29-Dec-20 15:37 34.341213 -119.612565 115 11508ft 120kts
29-Dec-20 15:38 34.328903 -119.574566 115 11506ft 120kts
29-Dec-20 15:39 34.316540 -119.536461 115 11509ft 120kts
29-Dec-20 15:40 34.311408 -119.496019 91 11508ft 125kts
29-Dec-20 15:41 34.314122 -119.453860 89 11506ft 126kts
29-Dec-20 15:42 34.317264 -119.411449 89 11507ft 126kts
29-Dec-20 15:43 34.320494 -119.369053 89 11504ft 127kts
29-Dec-20 15:44 34.323724 -119.326753 89 11506ft 126kts
29-Dec-20 15:45 34.326966 -119.284154 89 11506ft 127kts
29-Dec-20 15:46 34.330163 -119.241957 89 11504ft 127kts
29-Dec-20 15:47 34.333692 -119.199312 89 11497ft 129kts
29-Dec-20 15:48 34.336630 -119.156788 89 11505ft 127kts
29-Dec-20 15:49 34.339757 -119.114227 89 11505ft 128kts
29-Dec-20 15:50 34.342847 -119.071300 89 11481ft 128kts
29-Dec-20 15:51 34.346255 -119.028300 90 11507ft 127kts
29-Dec-20 15:52 34.349285 -118.985603 89 11506ft 128kts
29-Dec-20 15:53 34.352410 -118.942610 89 11508ft 128kts
29-Dec-20 15:54 34.355546 -118.899508 89 11507ft 128kts
29-Dec-20 15:55 34.348616 -118.858966 115 11508ft 123kts
29-Dec-20 15:56 34.336048 -118.820502 116 11507ft 124kts
29-Dec-20 15:57 34.323059 -118.782031 116 11483ft 125kts
29-Dec-20 15:58 34.310018 -118.743711 117 11503ft 124kts
29-Dec-20 15:59 34.296875 -118.705304 117 11500ft 126kts
29-Dec-20 16:00 34.283588 -118.666577 116 11506ft 127kts
29-Dec-20 16:01 34.270300 -118.627594 117 11502ft 126kts
29-Dec-20 16:02 34.257187 -118.589310 117 11502ft 125kts
29-Dec-20 16:03 34.244157 -118.551336 117 11502ft 125kts
29-Dec-20 16:04 34.230947 -118.512894 117 11501ft 125kts
29-Dec-20 16:05 34.218334 -118.473933 114 11503ft 126kts
29-Dec-20 16:06 34.206338 -118.434529 114 11504ft 126kts
29-Dec-20 16:07 34.194334 -118.395015 114 11521ft 125kts
29-Dec-20 16:08 34.182224 -118.355049 114 11496ft 126kts
29-Dec-20 16:09 34.170164 -118.315359 115 11496ft 126kts
29-Dec-20 16:10 34.158080 -118.275564 115 11500ft 126kts
29-Dec-20 16:11 34.146037 -118.236117 115 11500ft 126kts
29-Dec-20 16:12 34.133894 -118.196330 115 11499ft 126kts
29-Dec-20 16:13 34.121911 -118.157107 115 11526ft 126kts
29-Dec-20 16:14 34.109817 -118.117579 115 11520ft 126kts
29-Dec-20 16:15 34.097759 -118.078228 115 11523ft 125kts
29-Dec-20 16:16 34.085710 -118.038971 115 11529ft 126kts
29-Dec-20 16:17 34.073642 -117.999700 115 11524ft 126kts
29-Dec-20 16:18 34.061455 -117.960078 115 11505ft 127kts
29-Dec-20 16:19 34.049280 -117.920557 115 11506ft 126kts
29-Dec-20 16:20 34.037061 -117.880946 115 11504ft 126kts
29-Dec-20 16:21 34.024785 -117.841212 115 11507ft 126kts
29-Dec-20 16:22 34.012503 -117.801569 115 11507ft 126kts
29-Dec-20 16:23 34.000033 -117.761587 117 11505ft 127kts
29-Dec-20 16:24 33.986210 -117.722026 117 11476ft 128kts
29-Dec-20 16:25 33.972276 -117.682526 117 11480ft 127kts
29-Dec-20 16:26 33.958478 -117.643364 117 11503ft 127kts
29-Dec-20 16:27 33.944589 -117.604011 117 11505ft 127kts
29-Dec-20 16:28 33.930628 -117.564489 117 11503ft 128kts
29-Dec-20 16:29 33.912536 -117.526297 143 11048ft 136kts
29-Dec-20 16:30 33.883630 -117.500823 148 10240ft 122kts
29-Dec-20 16:31 33.856017 -117.477642 148 9442ft 120kts
29-Dec-20 16:32 33.828394 -117.454491 148 8647ft 121kts
29-Dec-20 16:33 33.800296 -117.430962 148 7851ft 123kts
29-Dec-20 16:34 33.772054 -117.407159 148 7053ft 122kts
29-Dec-20 16:35 33.746653 -117.385163 153 6305ft 102kts
29-Dec-20 16:36 33.724617 -117.363535 132 5509ft 103kts
29-Dec-20 16:37 33.708473 -117.331446 112 4710ft 117kts
29-Dec-20 16:38 33.703447 -117.297271 68 3932ft 104kts
29-Dec-20 16:39 33.702800 -117.262905 100 3121ft 106kts
29-Dec-20 16:40 33.709527 -117.229628 61 2441ft 89kts
29-Dec-20 16:41 33.719953 -117.206228 9 2454ft 79kts
29-Dec-20 16:42 33.740508 -117.211388 335 2057ft 76kts
29-Dec-20 16:43 33.760224 -117.217647 341 1417ft 54kts
29-Dec-20 16:44 33.763278 -117.218853 168 1417ft 0kts
29-Dec-20 16:45 33.763156 -117.218822 166 1417ft 3kts
29-Dec-20 16:46 33.761415 -117.218372 199 1417ft 0kts
29-Dec-20 16:47 33.761462 -117.218578 53 1417ft 0kts
29-Dec-20 16:48 33.761462 -117.218578 53 1417ft 0kts
29-Dec-20 16:49 33.761462 -117.218578 53 1417ft 0kts
29-Dec-20 16:50 33.761462 -117.218578 53 1417ft 0kts
29-Dec-20 16:51 33.761462 -117.218578 53 1417ft 0kts

Navigation Log

Ident Type
Flight plan parsing failed, navigation log unavailable